LVS137 SADF-SAAI
Flight info
| Callsign | LVS137 |
|---|---|
| Flight time | N/A |
| Altitude | 1000 |
| Route | PAL MAT CV3 PTA DCT PDI |
| Aircraft | ECHO/L-SFG/C |
Departure
| Time | 2026-04-23 18:07 |
|---|---|
| Airport | San Fernando Airport (SADF) |
Arrival
| Time | N/A |
|---|---|
| Airport | Punta Indio Naval Air Base (SAAI) |
| Time | Latitude | Longitude | Altitude | Speed | Heading |
|---|---|---|---|---|---|
| 2026-04-23 17:49 | -34.45809 | -58.59027 | 21 ft | 0 kts | 333° |
| 2026-04-23 18:02 | -34.45796 | -58.59036 | 21 ft | 2 kts | 323° |
| 2026-04-23 18:02 | -34.45836 | -58.59154 | 21 ft | 27 kts | 245° |
| 2026-04-23 18:02 | -34.45937 | -58.59387 | 21 ft | 35 kts | 242° |
| 2026-04-23 18:02 | -34.46028 | -58.59598 | 21 ft | 8 kts | 243° |
| 2026-04-23 18:03 | -34.46029 | -58.59600 | 21 ft | 0 kts | 243° |
| 2026-04-23 18:04 | -34.46033 | -58.59612 | 21 ft | 5 kts | 258° |
| 2026-04-23 18:05 | -34.45989 | -58.59690 | 21 ft | 9 kts | 321° |
| 2026-04-23 18:05 | -34.45962 | -58.59686 | 21 ft | 8 kts | 61° |
| 2026-04-23 18:05 | -34.45958 | -58.59678 | 21 ft | 0 kts | 46° |
| 2026-04-23 18:06 | -34.45951 | -58.59670 | 21 ft | 14 kts | 45° |
| 2026-04-23 18:06 | -34.45725 | -58.59408 | 34 ft | 70 kts | 47° |
| 2026-04-23 18:06 | -34.45346 | -58.58926 | 222 ft | 78 kts | 49° |
| 2026-04-23 18:06 | -34.44985 | -58.58455 | 487 ft | 78 kts | 47° |
| 2026-04-23 18:07 | -34.44586 | -58.57957 | 652 ft | 86 kts | 50° |
| 2026-04-23 18:07 | -34.44441 | -58.57289 | 862 ft | 84 kts | 98° |
| 2026-04-23 18:07 | -34.44707 | -58.56640 | 970 ft | 94 kts | 135° |
| 2026-04-23 18:07 | -34.45319 | -58.56392 | 975 ft | 96 kts | 182° |
| 2026-04-23 18:08 | -34.45746 | -58.56525 | 983 ft | 96 kts | 199° |
| 2026-04-23 18:08 | -34.46612 | -58.56825 | 980 ft | 97 kts | 194° |
| 2026-04-23 18:08 | -34.47265 | -58.57035 | 980 ft | 98 kts | 194° |
| 2026-04-23 18:08 | -34.47924 | -58.57245 | 983 ft | 98 kts | 194° |
| 2026-04-23 18:09 | -34.48587 | -58.57453 | 980 ft | 98 kts | 194° |
| 2026-04-23 18:09 | -34.49244 | -58.57660 | 983 ft | 98 kts | 194° |
| 2026-04-23 18:09 | -34.49913 | -58.57867 | 981 ft | 100 kts | 194° |
| 2026-04-23 18:09 | -34.50586 | -58.58080 | 979 ft | 100 kts | 194° |
| 2026-04-23 18:10 | -34.51260 | -58.58291 | 980 ft | 100 kts | 194° |
| 2026-04-23 18:10 | -34.51934 | -58.58502 | 978 ft | 100 kts | 194° |
| 2026-04-23 18:10 | -34.52596 | -58.58710 | 973 ft | 99 kts | 194° |
| 2026-04-23 18:10 | -34.53262 | -58.58916 | 975 ft | 99 kts | 194° |
| 2026-04-23 18:11 | -34.53931 | -58.59125 | 976 ft | 100 kts | 194° |
| 2026-04-23 18:11 | -34.54607 | -58.59335 | 977 ft | 100 kts | 194° |
| 2026-04-23 18:11 | -34.55285 | -58.59548 | 982 ft | 101 kts | 194° |
| 2026-04-23 18:11 | -34.55967 | -58.59761 | 982 ft | 101 kts | 194° |
| 2026-04-23 18:12 | -34.56646 | -58.59975 | 975 ft | 100 kts | 193° |
| 2026-04-23 18:12 | -34.57322 | -58.60185 | 970 ft | 99 kts | 194° |
| 2026-04-23 18:12 | -34.57985 | -58.60390 | 973 ft | 100 kts | 194° |
| 2026-04-23 18:12 | -34.58648 | -58.60622 | 968 ft | 98 kts | 206° |
| 2026-04-23 18:13 | -34.59270 | -58.60844 | 957 ft | 95 kts | 167° |
| 2026-04-23 18:13 | -34.59843 | -58.60477 | 969 ft | 95 kts | 143° |
| 2026-04-23 18:13 | -34.60406 | -58.60032 | 971 ft | 97 kts | 147° |
| 2026-04-23 18:13 | -34.60977 | -58.59587 | 974 ft | 98 kts | 146° |
| 2026-04-23 18:14 | -34.61354 | -58.59285 | 976 ft | 98 kts | 146° |
| 2026-04-23 18:14 | -34.62114 | -58.58683 | 978 ft | 97 kts | 146° |
| 2026-04-23 18:14 | -34.62485 | -58.58383 | 978 ft | 97 kts | 146° |
| 2026-04-23 18:14 | -34.63230 | -58.57783 | 982 ft | 97 kts | 145° |
| 2026-04-23 18:15 | -34.63790 | -58.57334 | 977 ft | 96 kts | 146° |
| 2026-04-23 18:15 | -34.64351 | -58.56887 | 976 ft | 97 kts | 146° |
| 2026-04-23 18:15 | -34.64914 | -58.56431 | 977 ft | 97 kts | 146° |
| 2026-04-23 18:15 | -34.65477 | -58.55980 | 982 ft | 97 kts | 146° |
| 2026-04-23 18:16 | -34.65852 | -58.55675 | 977 ft | 97 kts | 146° |
| 2026-04-23 18:16 | -34.66415 | -58.55224 | 978 ft | 96 kts | 146° |
| 2026-04-23 18:16 | -34.67155 | -58.54627 | 974 ft | 96 kts | 146° |
| 2026-04-23 18:17 | -34.68095 | -58.53874 | 978 ft | 97 kts | 146° |
| 2026-04-23 18:17 | -34.68651 | -58.53425 | 978 ft | 97 kts | 145° |
| 2026-04-23 18:17 | -34.69213 | -58.52963 | 977 ft | 98 kts | 145° |
| 2026-04-23 18:17 | -34.69778 | -58.52505 | 978 ft | 98 kts | 145° |
| 2026-04-23 18:18 | -34.70345 | -58.52047 | 985 ft | 98 kts | 146° |
| 2026-04-23 18:18 | -34.70916 | -58.51589 | 981 ft | 98 kts | 146° |
| 2026-04-23 18:18 | -34.71488 | -58.51129 | 982 ft | 98 kts | 146° |
| 2026-04-23 18:18 | -34.72055 | -58.50671 | 977 ft | 97 kts | 146° |
| 2026-04-23 18:19 | -34.72618 | -58.50215 | 974 ft | 97 kts | 144° |
| 2026-04-23 18:19 | -34.73008 | -58.49576 | 974 ft | 94 kts | 114° |
| 2026-04-23 18:19 | -34.73324 | -58.48865 | 969 ft | 96 kts | 120° |
| 2026-04-23 18:19 | -34.73648 | -58.48162 | 973 ft | 97 kts | 119° |
| 2026-04-23 18:20 | -34.73982 | -58.47450 | 971 ft | 97 kts | 119° |
| 2026-04-23 18:20 | -34.74314 | -58.46736 | 971 ft | 97 kts | 119° |
| 2026-04-23 18:20 | -34.74647 | -58.46025 | 973 ft | 97 kts | 119° |
| 2026-04-23 18:20 | -34.74982 | -58.45309 | 973 ft | 97 kts | 119° |
| 2026-04-23 18:21 | -34.75315 | -58.44594 | 971 ft | 97 kts | 119° |
| 2026-04-23 18:21 | -34.75650 | -58.43879 | 972 ft | 97 kts | 119° |
| 2026-04-23 18:21 | -34.75983 | -58.43163 | 971 ft | 97 kts | 119° |
| 2026-04-23 18:21 | -34.76312 | -58.42459 | 972 ft | 97 kts | 119° |
| 2026-04-23 18:22 | -34.76649 | -58.41739 | 971 ft | 97 kts | 119° |
| 2026-04-23 18:22 | -34.76977 | -58.41036 | 972 ft | 97 kts | 119° |
| 2026-04-23 18:22 | -34.77309 | -58.40324 | 974 ft | 97 kts | 119° |
| 2026-04-23 18:22 | -34.77638 | -58.39617 | 971 ft | 96 kts | 119° |
| 2026-04-23 18:23 | -34.77968 | -58.38909 | 972 ft | 96 kts | 119° |
| 2026-04-23 18:23 | -34.78632 | -58.37487 | 969 ft | 96 kts | 119° |
| 2026-04-23 18:24 | -34.79291 | -58.36073 | 970 ft | 96 kts | 118° |
| 2026-04-23 18:24 | -34.79615 | -58.35373 | 971 ft | 97 kts | 118° |
| 2026-04-23 18:24 | -34.79947 | -58.34664 | 974 ft | 97 kts | 119° |
| 2026-04-23 18:25 | -34.80613 | -58.33235 | 976 ft | 97 kts | 119° |
| 2026-04-23 18:25 | -34.80944 | -58.32521 | 972 ft | 97 kts | 119° |
| 2026-04-23 18:25 | -34.81278 | -58.31806 | 975 ft | 97 kts | 119° |
| 2026-04-23 18:25 | -34.81611 | -58.31089 | 974 ft | 98 kts | 119° |
| 2026-04-23 18:26 | -34.81947 | -58.30366 | 977 ft | 97 kts | 118° |
| 2026-04-23 18:26 | -34.82281 | -58.29646 | 975 ft | 97 kts | 119° |
| 2026-04-23 18:26 | -34.82618 | -58.28926 | 981 ft | 99 kts | 118° |
| 2026-04-23 18:26 | -34.82955 | -58.28196 | 977 ft | 98 kts | 119° |
| 2026-04-23 18:27 | -34.83293 | -58.27474 | 980 ft | 98 kts | 118° |
| 2026-04-23 18:27 | -34.83628 | -58.26750 | 990 ft | 98 kts | 118° |
| 2026-04-23 18:27 | -34.83963 | -58.26024 | 983 ft | 98 kts | 118° |
| 2026-04-23 18:27 | -34.84300 | -58.25304 | 978 ft | 97 kts | 119° |
| 2026-04-23 18:28 | -34.84628 | -58.24590 | 973 ft | 96 kts | 118° |
| 2026-04-23 18:28 | -34.84963 | -58.23881 | 971 ft | 97 kts | 119° |
| 2026-04-23 18:28 | -34.85297 | -58.23173 | 973 ft | 97 kts | 117° |
| 2026-04-23 18:28 | -34.85623 | -58.22455 | 970 ft | 97 kts | 118° |
| 2026-04-23 18:29 | -34.85955 | -58.21739 | 972 ft | 97 kts | 118° |
| 2026-04-23 18:29 | -34.86251 | -58.21004 | 972 ft | 96 kts | 111° |
| 2026-04-23 18:29 | -34.86522 | -58.20260 | 978 ft | 97 kts | 114° |
| 2026-04-23 18:29 | -34.86799 | -58.19505 | 984 ft | 98 kts | 112° |
| 2026-04-23 18:30 | -34.87077 | -58.18739 | 985 ft | 99 kts | 112° |
| 2026-04-23 18:30 | -34.87351 | -58.17986 | 981 ft | 99 kts | 112° |
| 2026-04-23 18:30 | -34.87628 | -58.17226 | 987 ft | 98 kts | 112° |
| 2026-04-23 18:30 | -34.87905 | -58.16469 | 985 ft | 98 kts | 112° |
| 2026-04-23 18:31 | -34.88182 | -58.15715 | 989 ft | 98 kts | 111° |
| 2026-04-23 18:31 | -34.88449 | -58.14946 | 983 ft | 99 kts | 112° |
| 2026-04-23 18:31 | -34.88734 | -58.14186 | 987 ft | 98 kts | 113° |
| 2026-04-23 18:31 | -34.89008 | -58.13442 | 986 ft | 97 kts | 112° |
| 2026-04-23 18:32 | -34.89286 | -58.12686 | 980 ft | 97 kts | 112° |
| 2026-04-23 18:32 | -34.89566 | -58.11943 | 983 ft | 97 kts | 112° |
| 2026-04-23 18:32 | -34.89833 | -58.11194 | 992 ft | 95 kts | 111° |
| 2026-04-23 18:32 | -34.90105 | -58.10444 | 999 ft | 98 kts | 111° |
| 2026-04-23 18:33 | -34.90378 | -58.09686 | 987 ft | 97 kts | 112° |
| 2026-04-23 18:33 | -34.90658 | -58.08937 | 993 ft | 98 kts | 112° |
| 2026-04-23 18:33 | -34.90935 | -58.08174 | 999 ft | 99 kts | 112° |
| 2026-04-23 18:33 | -34.91209 | -58.07408 | 1003 ft | 98 kts | 112° |
| 2026-04-23 18:34 | -34.91486 | -58.06662 | 1006 ft | 99 kts | 111° |
| 2026-04-23 18:34 | -34.91766 | -58.05877 | 1003 ft | 100 kts | 111° |
| 2026-04-23 18:34 | -34.92049 | -58.05098 | 1003 ft | 101 kts | 112° |
| 2026-04-23 18:34 | -34.92335 | -58.04326 | 1004 ft | 101 kts | 112° |
| 2026-04-23 18:35 | -34.92615 | -58.03551 | 998 ft | 99 kts | 112° |
| 2026-04-23 18:35 | -34.92889 | -58.02788 | 1002 ft | 99 kts | 111° |
| 2026-04-23 18:35 | -34.93161 | -58.02019 | 993 ft | 98 kts | 112° |
| 2026-04-23 18:35 | -34.93441 | -58.01257 | 1125 ft | 97 kts | 112° |
| 2026-04-23 18:36 | -34.93707 | -58.00516 | 1324 ft | 94 kts | 113° |
| 2026-04-23 18:36 | -34.93976 | -57.99783 | 1493 ft | 97 kts | 113° |
| 2026-04-23 18:36 | -34.94266 | -57.98992 | 1502 ft | 106 kts | 114° |
| 2026-04-23 18:36 | -34.94562 | -57.98191 | 1509 ft | 101 kts | 113° |
| 2026-04-23 18:37 | -34.94841 | -57.97418 | 1499 ft | 99 kts | 113° |
| 2026-04-23 18:37 | -34.95118 | -57.96657 | 1495 ft | 98 kts | 113° |
| 2026-04-23 18:37 | -34.95393 | -57.95899 | 1495 ft | 97 kts | 112° |
| 2026-04-23 18:37 | -34.95664 | -57.95151 | 1493 ft | 96 kts | 113° |
| 2026-04-23 18:38 | -34.95937 | -57.94401 | 1494 ft | 97 kts | 112° |
| 2026-04-23 18:38 | -34.96207 | -57.93650 | 1491 ft | 97 kts | 113° |
| 2026-04-23 18:38 | -34.96478 | -57.92903 | 1497 ft | 96 kts | 112° |
| 2026-04-23 18:38 | -34.96748 | -57.92154 | 1494 ft | 96 kts | 112° |
| 2026-04-23 18:39 | -34.97020 | -57.91405 | 1490 ft | 96 kts | 113° |
| 2026-04-23 18:39 | -34.97287 | -57.90673 | 1492 ft | 96 kts | 113° |
| 2026-04-23 18:39 | -34.97555 | -57.89930 | 1490 ft | 95 kts | 113° |
| 2026-04-23 18:39 | -34.97933 | -57.89267 | 1491 ft | 96 kts | 129° |
| 2026-04-23 18:40 | -34.98344 | -57.88618 | 1495 ft | 97 kts | 126° |
| 2026-04-23 18:40 | -34.98755 | -57.87963 | 1493 ft | 97 kts | 126° |
| 2026-04-23 18:40 | -34.99164 | -57.87307 | 1497 ft | 97 kts | 127° |
| 2026-04-23 18:40 | -34.99575 | -57.86646 | 1495 ft | 98 kts | 126° |
| 2026-04-23 18:41 | -34.99988 | -57.85981 | 1495 ft | 98 kts | 126° |
| 2026-04-23 18:41 | -35.00407 | -57.85323 | 1497 ft | 98 kts | 127° |
| 2026-04-23 18:41 | -35.00823 | -57.84661 | 1496 ft | 98 kts | 126° |
| 2026-04-23 18:41 | -35.01231 | -57.83997 | 1496 ft | 97 kts | 126° |
| 2026-04-23 18:42 | -35.01641 | -57.83340 | 1497 ft | 98 kts | 127° |
| 2026-04-23 18:42 | -35.02061 | -57.82674 | 1499 ft | 100 kts | 127° |
| 2026-04-23 18:42 | -35.02486 | -57.82006 | 1499 ft | 100 kts | 127° |
| 2026-04-23 18:42 | -35.02900 | -57.81325 | 1495 ft | 99 kts | 125° |
| 2026-04-23 18:43 | -35.03308 | -57.80663 | 1496 ft | 98 kts | 127° |
| 2026-04-23 18:43 | -35.03721 | -57.79999 | 1495 ft | 98 kts | 126° |
| 2026-04-23 18:43 | -35.04130 | -57.79333 | 1497 ft | 98 kts | 127° |
| 2026-04-23 18:43 | -35.04542 | -57.78669 | 1493 ft | 98 kts | 126° |
| 2026-04-23 18:44 | -35.04956 | -57.78005 | 1490 ft | 98 kts | 126° |
| 2026-04-23 18:44 | -35.05364 | -57.77346 | 1486 ft | 96 kts | 126° |
| 2026-04-23 18:44 | -35.05767 | -57.76696 | 1488 ft | 97 kts | 126° |
| 2026-04-23 18:44 | -35.06174 | -57.76040 | 1490 ft | 97 kts | 126° |
| 2026-04-23 18:45 | -35.06580 | -57.75389 | 1490 ft | 96 kts | 126° |
| 2026-04-23 18:45 | -35.06982 | -57.74736 | 1488 ft | 96 kts | 126° |
| 2026-04-23 18:45 | -35.07389 | -57.74084 | 1488 ft | 97 kts | 126° |
| 2026-04-23 18:45 | -35.07798 | -57.73427 | 1484 ft | 96 kts | 126° |
| 2026-04-23 18:46 | -35.08200 | -57.72775 | 1484 ft | 96 kts | 126° |
| 2026-04-23 18:46 | -35.08609 | -57.72125 | 1484 ft | 97 kts | 126° |
| 2026-04-23 18:46 | -35.09017 | -57.71465 | 1487 ft | 98 kts | 127° |
| 2026-04-23 18:46 | -35.09429 | -57.70802 | 1484 ft | 98 kts | 126° |
| 2026-04-23 18:47 | -35.09838 | -57.70147 | 1489 ft | 99 kts | 127° |
| 2026-04-23 18:47 | -35.10252 | -57.69478 | 1489 ft | 99 kts | 126° |
| 2026-04-23 18:47 | -35.10669 | -57.68807 | 1490 ft | 100 kts | 126° |
| 2026-04-23 18:47 | -35.11084 | -57.68133 | 1488 ft | 99 kts | 126° |
| 2026-04-23 18:48 | -35.11500 | -57.67469 | 1486 ft | 99 kts | 126° |
| 2026-04-23 18:48 | -35.11914 | -57.66797 | 1482 ft | 99 kts | 126° |
| 2026-04-23 18:48 | -35.12326 | -57.66132 | 1486 ft | 98 kts | 127° |
| 2026-04-23 18:48 | -35.12739 | -57.65464 | 1480 ft | 98 kts | 126° |
| 2026-04-23 18:49 | -35.13150 | -57.64801 | 1481 ft | 97 kts | 126° |
| 2026-04-23 18:49 | -35.13555 | -57.64146 | 1477 ft | 97 kts | 127° |
| 2026-04-23 18:49 | -35.13963 | -57.63489 | 1475 ft | 97 kts | 126° |
| 2026-04-23 18:49 | -35.14368 | -57.62829 | 1474 ft | 97 kts | 126° |
| 2026-04-23 18:50 | -35.14638 | -57.62395 | 1471 ft | 97 kts | 126° |
| 2026-04-23 18:50 | -35.15179 | -57.61522 | 1470 ft | 97 kts | 126° |
| 2026-04-23 18:50 | -35.15591 | -57.60858 | 1470 ft | 97 kts | 127° |
| 2026-04-23 18:50 | -35.15999 | -57.60200 | 1471 ft | 97 kts | 126° |
| 2026-04-23 18:51 | -35.16400 | -57.59547 | 1471 ft | 97 kts | 126° |
| 2026-04-23 18:51 | -35.16811 | -57.58885 | 1465 ft | 97 kts | 126° |
| 2026-04-23 18:51 | -35.17213 | -57.58235 | 1468 ft | 98 kts | 127° |
| 2026-04-23 18:51 | -35.17622 | -57.57570 | 1465 ft | 98 kts | 127° |
| 2026-04-23 18:52 | -35.18031 | -57.56904 | 1467 ft | 98 kts | 126° |
| 2026-04-23 18:52 | -35.18440 | -57.56242 | 1464 ft | 97 kts | 126° |
| 2026-04-23 18:52 | -35.18849 | -57.55587 | 1465 ft | 98 kts | 126° |
| 2026-04-23 18:52 | -35.19260 | -57.54918 | 1463 ft | 98 kts | 127° |
| 2026-04-23 18:53 | -35.19674 | -57.54252 | 1467 ft | 99 kts | 126° |
| 2026-04-23 18:53 | -35.20084 | -57.53582 | 1472 ft | 98 kts | 127° |
| 2026-04-23 18:53 | -35.20496 | -57.52921 | 1468 ft | 99 kts | 127° |
| 2026-04-23 18:53 | -35.20913 | -57.52239 | 1470 ft | 99 kts | 126° |
| 2026-04-23 18:54 | -35.21328 | -57.51569 | 1470 ft | 99 kts | 127° |
| 2026-04-23 18:54 | -35.21742 | -57.50902 | 1469 ft | 100 kts | 127° |
| 2026-04-23 18:54 | -35.22169 | -57.50211 | 1463 ft | 100 kts | 127° |
| 2026-04-23 18:54 | -35.22581 | -57.49540 | 1468 ft | 100 kts | 126° |
| 2026-04-23 18:55 | -35.22998 | -57.48860 | 1466 ft | 98 kts | 127° |
| 2026-04-23 18:55 | -35.23415 | -57.48189 | 1473 ft | 100 kts | 126° |
| 2026-04-23 18:55 | -35.23830 | -57.47508 | 1474 ft | 100 kts | 127° |
| 2026-04-23 18:55 | -35.24259 | -57.46818 | 1476 ft | 103 kts | 127° |
| 2026-04-23 18:56 | -35.24542 | -57.46357 | 1472 ft | 102 kts | 128° |
| 2026-04-23 18:56 | -35.25108 | -57.45440 | 1472 ft | 99 kts | 126° |
| 2026-04-23 18:56 | -35.25528 | -57.44757 | 1474 ft | 101 kts | 126° |
| 2026-04-23 18:56 | -35.25939 | -57.44087 | 1468 ft | 98 kts | 126° |
| 2026-04-23 18:57 | -35.26347 | -57.43430 | 1464 ft | 97 kts | 127° |
| 2026-04-23 18:57 | -35.26756 | -57.42762 | 1466 ft | 99 kts | 126° |
| 2026-04-23 18:57 | -35.27168 | -57.42089 | 1469 ft | 99 kts | 127° |
| 2026-04-23 18:57 | -35.27506 | -57.41544 | 1467 ft | 98 kts | 126° |
| 2026-04-23 18:58 | -35.27907 | -57.40881 | 1465 ft | 97 kts | 126° |
| 2026-04-23 18:58 | -35.28313 | -57.40220 | 1459 ft | 97 kts | 126° |
| 2026-04-23 18:58 | -35.28721 | -57.39565 | 1463 ft | 98 kts | 126° |
| 2026-04-23 18:58 | -35.29141 | -57.38882 | 1406 ft | 102 kts | 126° |
| 2026-04-23 18:59 | -35.29567 | -57.38194 | 1334 ft | 103 kts | 126° |
| 2026-04-23 18:59 | -35.30003 | -57.37490 | 1264 ft | 104 kts | 126° |
| 2026-04-23 18:59 | -35.30441 | -57.36777 | 1192 ft | 105 kts | 126° |
| 2026-04-23 18:59 | -35.30878 | -57.36068 | 1122 ft | 106 kts | 125° |
| 2026-04-23 19:00 | -35.31322 | -57.35345 | 1055 ft | 107 kts | 126° |
| 2026-04-23 19:00 | -35.31770 | -57.34613 | 975 ft | 106 kts | 126° |
| 2026-04-23 19:00 | -35.32206 | -57.33910 | 974 ft | 103 kts | 126° |
| 2026-04-23 19:00 | -35.32630 | -57.33207 | 965 ft | 102 kts | 126° |
| 2026-04-23 19:01 | -35.33055 | -57.32516 | 963 ft | 101 kts | 126° |
| 2026-04-23 19:01 | -35.33408 | -57.31939 | 963 ft | 102 kts | 126° |